createdAt,value
2023-04-01T00:01:16.694Z,5.80
2023-04-01T00:03:44.722Z,5.80
2023-04-01T00:06:18.675Z,5.90
2023-04-01T00:08:46.625Z,4.80
2023-04-01T00:11:15.352Z,5.00
2023-04-01T00:13:43.438Z,6.00
2023-04-01T00:16:21.087Z,5.80
2023-04-01T00:18:51.897Z,6.10
2023-04-01T00:21:20.666Z,6.10
2023-04-01T00:23:47.858Z,5.70
2023-04-01T00:26:16.464Z,5.50
2023-04-01T00:28:43.767Z,5.10
2023-04-01T00:31:11.929Z,5.10
2023-04-01T00:33:40.804Z,5.00
2023-04-01T00:36:12.710Z,5.40
2023-04-01T00:38:40.366Z,5.30
2023-04-01T00:41:08.330Z,4.60
2023-04-01T00:43:35.960Z,4.90
2023-04-01T00:46:03.298Z,4.60
2023-04-01T00:48:40.885Z,4.30
2023-04-01T00:51:12.931Z,4.50
2023-04-01T00:53:44.897Z,4.70
2023-04-01T00:56:16.996Z,4.50
2023-04-01T00:58:58.533Z,4.20
2023-04-01T01:04:34.757Z,4.30
2023-04-01T01:07:27.036Z,4.60
2023-04-01T01:10:12.080Z,3.90
2023-04-01T01:12:47.954Z,4.70
2023-04-01T01:18:11.756Z,4.50
2023-04-01T01:21:05.098Z,5.80
2023-04-01T01:24:00.212Z,6.40
2023-04-01T01:26:49.382Z,6.90
2023-04-01T01:29:36.649Z,7.20
2023-04-01T01:32:12.221Z,6.50
2023-04-01T01:35:06.056Z,6.60
2023-04-01T01:37:34.184Z,5.90
2023-04-01T01:40:08.700Z,6.40
2023-04-01T01:42:40.861Z,6.00
2023-04-01T01:45:11.903Z,6.50
2023-04-01T01:47:39.401Z,6.80
2023-04-01T01:50:12.613Z,9.30
2023-04-01T01:52:40.211Z,8.00
2023-04-01T01:55:29.269Z,9.50
2023-04-01T01:58:01.277Z,8.80
2023-04-01T02:00:29.918Z,8.70
2023-04-01T02:03:00.972Z,8.90
2023-04-01T02:05:32.233Z,8.80
2023-04-01T02:08:22.870Z,10.10
2023-04-01T02:11:01.621Z,9.20
2023-04-01T02:13:54.280Z,11.60
2023-04-01T02:16:39.147Z,8.10
2023-04-01T02:19:11.219Z,9.30
2023-04-01T02:21:41.412Z,9.40
2023-04-01T02:24:14.681Z,10.30
2023-04-01T02:26:42.496Z,10.20
2023-04-01T02:29:12.834Z,10.20
2023-04-01T02:31:40.804Z,10.70
2023-04-01T02:34:09.032Z,10.80
2023-04-01T02:36:37.765Z,10.40
2023-04-01T02:39:06.546Z,11.50
2023-04-01T02:41:41.784Z,11.40
2023-04-01T02:44:09.840Z,11.70
2023-04-01T02:46:38.919Z,10.10
2023-04-01T02:49:07.481Z,9.50
2023-04-01T02:51:35.292Z,10.00
2023-04-01T02:54:02.865Z,9.30
2023-04-01T02:56:31.011Z,10.00
2023-04-01T02:58:58.063Z,8.10
2023-04-01T03:01:25.340Z,7.60
2023-04-01T03:03:52.617Z,8.00
2023-04-01T03:06:19.848Z,8.00
2023-04-01T03:08:47.153Z,8.10
2023-04-01T03:11:14.920Z,8.20
2023-04-01T03:13:42.143Z,8.20
2023-04-01T03:16:09.296Z,8.60
2023-04-01T03:18:36.827Z,7.70
2023-04-01T03:21:21.380Z,8.00
2023-04-01T03:23:48.702Z,9.50
2023-04-01T03:26:16.925Z,7.70
2023-04-01T03:28:45.253Z,8.10
2023-04-01T03:31:12.798Z,8.30
2023-04-01T03:33:40.139Z,7.60
2023-04-01T03:36:07.956Z,8.60
2023-04-01T03:38:36.089Z,7.60
2023-04-01T03:41:03.683Z,7.60
2023-04-01T03:43:30.941Z,7.60
2023-04-01T03:46:01.434Z,7.10
2023-04-01T03:48:28.808Z,7.90
2023-04-01T03:50:56.154Z,8.10
2023-04-01T03:53:24.449Z,8.10
2023-04-01T03:56:12.265Z,7.40
2023-04-01T03:58:45.833Z,7.80
2023-04-01T04:01:24.447Z,7.70
2023-04-01T04:03:56.129Z,7.20
2023-04-01T04:06:43.266Z,7.80
2023-04-01T04:09:15.126Z,6.70
2023-04-01T04:11:43.951Z,7.20
2023-04-01T04:14:33.901Z,7.70
2023-04-01T04:17:03.658Z,8.40
2023-04-01T04:19:35.452Z,8.10
2023-04-01T04:22:02.981Z,7.80
2023-04-01T04:24:30.495Z,8.10
2023-04-01T04:26:58.257Z,8.00
2023-04-01T04:29:25.620Z,7.40
2023-04-01T04:31:52.897Z,7.30
2023-04-01T04:34:20.630Z,7.10
2023-04-01T04:36:47.871Z,8.00
2023-04-01T04:39:15.151Z,8.50
2023-04-01T04:41:43.122Z,7.60
2023-04-01T04:44:10.393Z,6.50
2023-04-01T04:46:38.796Z,6.40
2023-04-01T04:49:06.680Z,6.40
2023-04-01T04:51:37.358Z,6.30
2023-04-01T04:54:05.922Z,6.40
2023-04-01T04:56:34.109Z,6.20
2023-04-01T04:59:01.394Z,6.10
2023-04-01T05:01:28.689Z,6.70
2023-04-01T05:03:56.577Z,6.70
2023-04-01T05:06:23.895Z,5.70
2023-04-01T05:08:51.201Z,5.80
2023-04-01T05:11:21.072Z,5.00
2023-04-01T05:13:48.970Z,9.00
2023-04-01T05:16:19.388Z,5.20
2023-04-01T05:18:47.838Z,5.40
2023-04-01T05:21:16.762Z,5.50
2023-04-01T05:23:44.966Z,5.70
2023-04-01T05:26:15.316Z,6.10
2023-04-01T05:28:43.002Z,5.50
2023-04-01T05:31:11.077Z,5.70
2023-04-01T05:33:38.608Z,5.70
2023-04-01T05:36:16.713Z,4.80
2023-04-01T05:38:45.284Z,5.10
2023-04-01T05:41:12.516Z,5.20
2023-04-01T05:43:41.249Z,5.30
2023-04-01T05:46:08.730Z,5.60
2023-04-01T05:48:36.571Z,6.00
2023-04-01T05:51:05.305Z,5.60
2023-04-01T05:53:32.920Z,5.70
2023-04-01T05:56:04.405Z,5.20
2023-04-01T05:58:32.156Z,6.20
2023-04-01T06:01:14.128Z,5.40
2023-04-01T06:03:44.174Z,6.20
2023-04-01T06:06:33.644Z,4.70
2023-04-01T06:09:16.009Z,5.80
2023-04-01T06:11:56.243Z,5.40
2023-04-01T06:14:50.350Z,4.90
2023-04-01T06:17:39.788Z,5.90
2023-04-01T06:20:22.322Z,5.20
2023-04-01T06:23:23.107Z,5.60
2023-04-01T06:26:04.761Z,6.20
2023-04-01T06:28:59.020Z,6.40
2023-04-01T06:31:48.979Z,6.80
2023-04-01T06:34:33.420Z,6.70
2023-04-01T06:37:30.291Z,7.10
2023-04-01T06:40:31.793Z,6.90
2023-04-01T06:43:12.604Z,7.50
2023-04-01T06:45:57.611Z,6.80
2023-04-01T06:48:45.485Z,8.10
2023-04-01T06:51:33.753Z,7.00
2023-04-01T06:54:22.723Z,12.00
2023-04-01T06:56:57.484Z,10.20
2023-04-01T06:59:29.683Z,10.50
2023-04-01T07:02:02.236Z,11.10
2023-04-01T07:04:37.799Z,10.70
2023-04-01T07:07:31.383Z,11.50
2023-04-01T07:10:02.564Z,10.90
2023-04-01T07:12:32.999Z,10.80
2023-04-01T07:15:08.129Z,8.80
2023-04-01T07:17:38.247Z,11.60
2023-04-01T07:20:21.274Z,12.10
2023-04-01T07:22:56.752Z,11.40
2023-04-01T07:25:38.734Z,10.70
2023-04-01T07:28:13.740Z,10.30
2023-04-01T07:31:16.641Z,9.00
2023-04-01T07:34:11.535Z,8.80
2023-04-01T07:37:20.421Z,8.90
2023-04-01T07:40:09.291Z,8.80
2023-04-01T07:42:48.049Z,9.10
2023-04-01T07:45:20.732Z,8.40
2023-04-01T07:48:08.601Z,7.50
2023-04-01T07:50:42.644Z,7.30
2023-04-01T07:53:29.524Z,9.40
2023-04-01T07:56:20.955Z,9.50
2023-04-01T07:59:05.309Z,9.60
2023-04-01T08:01:45.945Z,9.60
2023-04-01T08:04:32.008Z,8.70
2023-04-01T08:07:33.033Z,7.50
2023-04-01T08:10:23.937Z,7.60
2023-04-01T08:13:26.076Z,9.90
2023-04-01T08:16:18.808Z,10.30
2023-04-01T08:18:52.492Z,9.10
2023-04-01T08:21:28.847Z,9.70
2023-04-01T08:24:09.613Z,8.80
2023-04-01T08:26:49.850Z,7.60
2023-04-01T08:29:58.453Z,9.70
2023-04-01T08:33:05.549Z,8.20
2023-04-01T08:35:46.768Z,7.80
2023-04-01T08:38:54.335Z,7.20
2023-04-01T08:42:02.424Z,7.20
2023-04-01T08:45:14.275Z,6.50
2023-04-01T08:47:51.785Z,7.30
2023-04-01T08:50:42.159Z,7.70
2023-04-01T08:53:48.582Z,7.20
2023-04-01T08:56:24.883Z,6.30
2023-04-01T09:02:15.954Z,6.40
2023-04-01T09:05:01.487Z,6.40
2023-04-01T09:07:58.619Z,7.10
2023-04-01T09:10:26.464Z,7.20
2023-04-01T09:13:43.043Z,7.40
2023-04-01T09:16:40.340Z,8.40
2023-04-01T09:22:22.278Z,7.80
2023-04-01T09:25:26.989Z,6.10
2023-04-01T09:28:21.825Z,6.10
2023-04-01T09:31:26.736Z,6.40
2023-04-01T09:34:23.902Z,5.10
2023-04-01T09:37:22.917Z,4.80
2023-04-01T09:40:15.533Z,4.60
2023-04-01T09:43:20.332Z,3.90
2023-04-01T09:46:12.552Z,4.20
2023-04-01T09:49:02.127Z,4.80
2023-04-01T09:51:53.414Z,4.20
2023-04-01T09:54:47.861Z,4.30
2023-04-01T09:57:55.370Z,4.20
2023-04-01T10:00:47.336Z,3.50
2023-04-01T10:03:33.417Z,3.60
2023-04-01T10:06:52.827Z,3.40
2023-04-01T10:09:38.577Z,3.80
2023-04-01T10:12:36.064Z,2.70
2023-04-01T10:15:22.310Z,3.30
2023-04-01T10:18:00.870Z,3.80
2023-04-01T10:21:20.336Z,4.00
2023-04-01T10:23:50.361Z,4.00
2023-04-01T10:26:37.198Z,4.00
2023-04-01T10:29:32.436Z,3.60
2023-04-01T10:32:47.047Z,3.10
2023-04-01T10:35:48.606Z,2.50
2023-04-01T10:38:42.102Z,2.60
2023-04-01T10:41:31.416Z,2.20
2023-04-01T10:44:40.493Z,2.00
2023-04-01T10:47:41.287Z,2.20
2023-04-01T10:50:11.952Z,2.50
2023-04-01T10:53:13.100Z,2.60
2023-04-01T10:56:18.686Z,2.60
2023-04-01T10:59:14.187Z,4.00
2023-04-01T11:02:10.054Z,4.10
2023-04-01T11:05:00.330Z,4.30
2023-04-01T11:08:04.865Z,5.20
2023-04-01T11:11:10.883Z,4.50
2023-04-01T11:14:29.909Z,3.90
2023-04-01T11:17:34.924Z,2.70
2023-04-01T11:20:21.766Z,2.50
2023-04-01T11:23:01.983Z,2.50
2023-04-01T11:25:59.449Z,2.20
2023-04-01T11:29:06.083Z,3.30
2023-04-01T11:32:04.598Z,4.30
2023-04-01T11:34:46.507Z,2.90
2023-04-01T11:37:45.637Z,2.70
2023-04-01T11:40:41.257Z,2.70
2023-04-01T11:43:41.140Z,2.60
2023-04-01T11:46:13.815Z,3.40
2023-04-01T11:48:54.169Z,3.90
2023-04-01T11:51:35.456Z,4.50
2023-04-01T11:54:46.335Z,4.60
2023-04-01T11:57:38.001Z,4.00
2023-04-01T12:00:35.442Z,3.80
2023-04-01T12:03:18.995Z,3.30
2023-04-01T12:06:16.427Z,3.30
2023-04-01T12:09:11.704Z,3.90
2023-04-01T12:12:16.868Z,3.60
2023-04-01T12:15:15.444Z,3.50
2023-04-01T12:18:05.786Z,3.30
2023-04-01T12:20:42.196Z,3.00
2023-04-01T12:23:36.642Z,2.60
2023-04-01T12:26:21.393Z,2.30
2023-04-01T12:29:14.195Z,1.50
2023-04-01T12:32:04.085Z,1.30
2023-04-01T12:34:37.732Z,1.70
2023-04-01T12:37:23.955Z,1.80
2023-04-01T12:40:04.012Z,1.70
2023-04-01T12:43:07.304Z,1.60
2023-04-01T12:46:12.597Z,1.90
2023-04-01T12:49:03.327Z,1.90
2023-04-01T12:51:37.261Z,1.50
2023-04-01T12:54:26.415Z,1.50
2023-04-01T12:57:22.099Z,1.50
2023-04-01T13:00:12.144Z,1.40
2023-04-01T13:03:17.166Z,1.60
2023-04-01T13:05:53.929Z,1.70
2023-04-01T13:08:27.510Z,1.70
2023-04-01T13:11:25.080Z,1.70
2023-04-01T13:13:55.366Z,1.90
2023-04-01T13:16:56.976Z,1.90
2023-04-01T13:19:37.041Z,1.80
2023-04-01T13:22:08.866Z,1.70
2023-04-01T13:25:01.986Z,2.10
2023-04-01T13:27:46.618Z,2.30
2023-04-01T13:30:28.500Z,2.00
2023-04-01T13:33:18.754Z,1.90
2023-04-01T13:36:28.422Z,2.00
2023-04-01T13:38:57.139Z,2.10
2023-04-01T13:41:43.028Z,2.10
2023-04-01T13:45:01.668Z,2.00
2023-04-01T13:48:33.095Z,2.00
2023-04-01T13:52:08.988Z,1.50
2023-04-01T13:56:02.593Z,1.70
2023-04-01T13:59:53.432Z,1.90
2023-04-01T14:04:03.441Z,2.40
2023-04-01T14:07:30.730Z,2.80
2023-04-01T14:11:07.387Z,3.20
2023-04-01T14:14:39.045Z,2.40
2023-04-01T14:17:24.588Z,1.90
2023-04-01T14:20:56.646Z,1.30
2023-04-01T14:24:18.791Z,1.20
2023-04-01T14:27:38.662Z,1.60
2023-04-01T14:30:44.688Z,2.00
2023-04-01T14:33:50.425Z,1.70
2023-04-01T14:36:40.005Z,3.00
2023-04-01T14:39:55.825Z,1.90
2023-04-01T14:42:33.948Z,2.30
2023-04-01T14:45:07.155Z,1.80
2023-04-01T14:47:56.818Z,1.30
2023-04-01T14:50:33.221Z,1.40
2023-04-01T14:55:50.973Z,1.20
2023-04-01T14:58:27.085Z,1.30
2023-04-01T15:01:25.825Z,1.40
2023-04-01T15:04:18.023Z,1.20
2023-04-01T15:07:12.228Z,1.40
2023-04-01T15:10:22.388Z,1.20
2023-04-01T15:14:00.422Z,0.90
2023-04-01T15:17:09.437Z,1.20
2023-04-01T15:19:40.098Z,1.10
2023-04-01T15:22:45.261Z,0.90
2023-04-01T15:25:48.488Z,1.20
2023-04-01T15:28:32.839Z,1.40
2023-04-01T15:31:46.939Z,1.40
2023-04-01T15:35:02.218Z,1.80
2023-04-01T15:38:10.072Z,2.20
2023-04-01T15:41:25.163Z,2.00
2023-04-01T15:44:35.140Z,1.90
2023-04-01T15:47:49.790Z,2.20
2023-04-01T15:50:32.526Z,2.40
2023-04-01T15:53:09.475Z,2.40
2023-04-01T15:55:45.407Z,2.70
2023-04-01T15:58:57.857Z,2.70
2023-04-01T16:01:57.889Z,3.40
2023-04-01T16:04:58.114Z,3.20
2023-04-01T16:08:08.707Z,2.80
2023-04-01T16:11:18.180Z,2.80
2023-04-01T16:14:31.426Z,2.90
2023-04-01T16:18:11.819Z,4.50
2023-04-01T16:21:22.154Z,3.50
2023-04-01T16:24:19.312Z,3.60
2023-04-01T16:27:29.360Z,3.40
2023-04-01T16:30:43.369Z,4.30
2023-04-01T16:34:36.244Z,4.90
2023-04-01T16:38:09.731Z,5.00
2023-04-01T16:42:05.895Z,7.10
2023-04-01T16:46:14.809Z,13.70
2023-04-01T16:49:44.772Z,14.80
2023-04-01T16:53:44.008Z,6.80
2023-04-01T16:57:11.449Z,5.90
2023-04-01T17:00:45.767Z,5.70
2023-04-01T17:04:33.380Z,6.00
2023-04-01T17:08:06.370Z,6.60
2023-04-01T17:11:45.847Z,5.60
2023-04-01T17:19:07.994Z,5.40
2023-04-01T17:22:38.458Z,5.30
2023-04-01T17:25:55.436Z,5.80
2023-04-01T17:28:56.168Z,6.50
2023-04-01T17:31:59.790Z,6.10
2023-04-01T17:34:59.168Z,6.10
2023-04-01T17:38:36.252Z,5.60
2023-04-01T17:41:49.837Z,5.70
2023-04-01T17:45:19.159Z,5.90
2023-04-01T17:48:54.643Z,6.50
2023-04-01T17:51:40.789Z,7.50
2023-04-01T17:55:14.437Z,8.20
2023-04-01T17:59:03.580Z,8.10
2023-04-01T18:02:40.015Z,14.10
2023-04-01T18:06:00.065Z,7.70
2023-04-01T18:09:47.057Z,7.50
2023-04-01T18:12:49.100Z,7.90
2023-04-01T18:16:08.385Z,8.50
2023-04-01T18:19:31.950Z,8.20
2023-04-01T18:22:45.815Z,6.60
2023-04-01T18:26:30.800Z,7.40
2023-04-01T18:29:39.151Z,7.50
2023-04-01T18:33:45.626Z,7.30
2023-04-01T18:37:22.633Z,6.60
2023-04-01T18:41:20.290Z,6.30
2023-04-01T18:44:37.270Z,5.30
2023-04-01T18:47:48.346Z,4.80
2023-04-01T18:51:28.026Z,5.70
2023-04-01T18:54:42.715Z,5.20
2023-04-01T18:58:41.572Z,5.00
2023-04-01T19:02:23.466Z,6.60
2023-04-01T19:06:11.843Z,4.70
2023-04-01T19:10:00.529Z,5.60
2023-04-01T19:14:07.375Z,5.50
2023-04-01T19:18:07.366Z,9.10
2023-04-01T19:22:02.430Z,8.10
2023-04-01T19:25:59.685Z,6.80
2023-04-01T19:29:51.150Z,5.90
2023-04-01T19:33:48.587Z,6.40
2023-04-01T19:37:53.630Z,6.20
2023-04-01T19:41:39.330Z,6.30
2023-04-01T19:45:30.112Z,6.50
2023-04-01T19:49:22.182Z,6.90
2023-04-01T19:53:15.804Z,7.30
2023-04-01T19:56:59.238Z,6.80
2023-04-01T20:00:21.518Z,6.60
2023-04-01T20:04:24.466Z,7.40
2023-04-01T20:08:30.977Z,7.00
2023-04-01T20:11:47.108Z,8.30
2023-04-01T20:15:33.538Z,8.80
2023-04-01T20:19:04.533Z,8.70
2023-04-01T20:22:59.350Z,9.30
2023-04-01T20:26:31.981Z,7.90
2023-04-01T20:30:24.144Z,8.60
2023-04-01T20:33:52.512Z,8.70
2023-04-01T20:37:43.037Z,8.30
2023-04-01T20:41:33.309Z,9.40
2023-04-01T20:45:04.752Z,9.20
2023-04-01T20:49:10.993Z,9.50
2023-04-01T20:53:01.946Z,9.30
2023-04-01T20:56:12.154Z,10.20
2023-04-01T20:59:28.838Z,10.10
2023-04-01T21:03:02.300Z,11.90
2023-04-01T21:06:04.518Z,11.60
2023-04-01T21:09:40.980Z,12.50
2023-04-01T21:13:04.223Z,11.90
2023-04-01T21:16:36.765Z,12.60
2023-04-01T21:20:27.368Z,13.50
2023-04-01T21:24:02.029Z,13.30
2023-04-01T21:27:54.992Z,14.50
2023-04-01T21:31:24.380Z,15.10
2023-04-01T21:35:24.557Z,16.50
2023-04-01T21:39:24.870Z,16.20
2023-04-01T21:42:58.006Z,14.90
2023-04-01T21:46:24.214Z,15.30
2023-04-01T21:50:16.029Z,16.00
2023-04-01T21:53:50.442Z,19.20
2023-04-01T21:57:25.758Z,17.80
2023-04-01T22:00:54.611Z,16.40
2023-04-01T22:04:44.382Z,16.00
2023-04-01T22:08:11.489Z,16.90
2023-04-01T22:12:03.293Z,18.60
2023-04-01T22:15:57.044Z,18.10
2023-04-01T22:19:53.082Z,18.90
2023-04-01T22:23:18.657Z,22.00
2023-04-01T22:26:38.725Z,20.40
2023-04-01T22:33:17.772Z,20.20
2023-04-01T22:41:03.293Z,20.10
2023-04-01T22:44:48.882Z,22.60
2023-04-01T22:48:40.094Z,22.40
2023-04-01T22:52:01.759Z,20.40
2023-04-01T22:55:30.260Z,19.70
2023-04-01T22:58:31.362Z,21.50
2023-04-01T23:01:38.810Z,21.10
2023-04-01T23:04:56.851Z,23.90
2023-04-01T23:08:09.076Z,22.80
2023-04-01T23:11:11.867Z,21.20
2023-04-01T23:14:38.427Z,23.50
2023-04-01T23:17:28.901Z,23.20
2023-04-01T23:20:24.944Z,23.40
2023-04-01T23:23:28.587Z,23.80
2023-04-01T23:26:23.886Z,23.80
2023-04-01T23:28:54.463Z,23.40
2023-04-01T23:31:30.985Z,24.40
2023-04-01T23:34:05.307Z,25.40
2023-04-01T23:36:45.127Z,22.70
2023-04-01T23:39:55.681Z,24.20
2023-04-01T23:42:36.297Z,25.40
2023-04-01T23:45:38.936Z,24.00
2023-04-01T23:48:49.336Z,22.50
2023-04-01T23:51:58.915Z,22.10
2023-04-01T23:54:36.462Z,21.90
2023-04-01T23:57:15.899Z,22.50
